Time;durP1;ratioP1;P1;durP2;ratioP2;P2;SDS_P1;SDS_P2;PMS_P1;PMS_P2;Temp;Humidity;BMP_temperature;BMP_pressure;BME280_temperature;BME280_humidity;BME280_pressure;Samples;Min_cycle;Max_cycle;Signal;HPM_P1;HPM_P2
2023/10/02 00:00:40;;;;;;;9.27;4.32;;;;;;;;;;5073122;28;20020;-82
2023/10/02 00:03:05;;;;;;;9.02;4.10;;;;;;;;;;5071192;28;20023;-81
2023/10/02 00:08:31;;;;;;;9.57;4.47;;;;;;;;;;5068118;28;20086;-82
2023/10/02 00:11:05;;;;;;;10.55;4.13;;;;;;;;;;5053496;28;20029;-82
2023/10/02 00:13:30;;;;;;;9.60;4.35;;;;;;;;;;5070151;28;20095;-82
2023/10/02 00:15:55;;;;;;;9.82;4.40;;;;;;;;;;5057456;28;20032;-80
2023/10/02 00:18:21;;;;;;;10.20;4.53;;;;;;;;;;5069264;28;20029;-82
2023/10/02 00:21:17;;;;;;;10.35;4.75;;;;;;;;;;5056916;28;20396;-81
2023/10/02 00:23:33;;;;;;;9.77;4.57;;;;;;;;;;5071442;28;20031;-82
2023/10/02 00:26:03;;;;;;;8.27;4.35;;;;;;;;;;5057050;28;20051;-81
2023/10/02 00:28:33;;;;;;;12.77;5.05;;;;;;;;;;5073132;28;20052;-82
2023/10/02 00:30:58;;;;;;;10.02;5.18;;;;;;;;;;5052905;28;20516;-82
2023/10/02 00:33:27;;;;;;;9.10;4.45;;;;;;;;;;5047537;28;20032;-80
2023/10/02 00:35:56;;;;;;;11.80;5.80;;;;;;;;;;5055955;28;20396;-82
2023/10/02 00:38:23;;;;;;;10.25;5.15;;;;;;;;;;5073221;28;20497;-81
2023/10/02 00:40:48;;;;;;;9.55;4.45;;;;;;;;;;5056653;28;20084;-82
2023/10/02 00:46:01;;;;;;;10.82;4.72;;;;;;;;;;5060625;28;20035;-82
2023/10/02 00:48:28;;;;;;;9.55;4.63;;;;;;;;;;5050982;28;20041;-80
2023/10/02 00:50:54;;;;;;;10.32;4.80;;;;;;;;;;5052413;28;20090;-82
2023/10/02 00:53:37;;;;;;;8.13;4.05;;;;;;;;;;5072127;28;20029;-82
2023/10/02 00:56:03;;;;;;;10.38;5.32;;;;;;;;;;5069403;28;20496;-82
2023/10/02 00:58:29;;;;;;;9.80;4.75;;;;;;;;;;5069985;28;20374;-82
2023/10/02 01:00:55;;;;;;;10.60;5.03;;;;;;;;;;5056203;28;20027;-80
2023/10/02 01:03:22;;;;;;;10.82;4.90;;;;;;;;;;5058240;28;20099;-81
2023/10/02 01:05:50;;;;;;;10.20;4.57;;;;;;;;;;5076996;28;20032;-82
2023/10/02 01:08:25;;;;;;;7.82;4.75;;;;;;;;;;5059164;28;20062;-82
2023/10/02 01:10:56;;;;;;;10.43;5.13;;;;;;;;;;5059334;28;20624;-80
2023/10/02 01:13:24;;;;;;;8.90;4.75;;;;;;;;;;5070178;28;20032;-82
2023/10/02 01:15:50;;;;;;;10.48;5.20;;;;;;;;;;5071830;28;20032;-80
2023/10/02 01:18:22;;;;;;;9.70;4.97;;;;;;;;;;5060394;28;20039;-82
2023/10/02 01:20:53;;;;;;;10.38;4.50;;;;;;;;;;5073793;28;20024;-81
2023/10/02 01:23:22;;;;;;;13.27;5.72;;;;;;;;;;5055214;28;20028;-80
2023/10/02 01:25:47;;;;;;;10.35;5.20;;;;;;;;;;5059851;28;20507;-82
2023/10/02 01:28:13;;;;;;;10.93;5.07;;;;;;;;;;5051991;28;20020;-81
2023/10/02 01:30:40;;;;;;;9.73;4.65;;;;;;;;;;5052982;28;20032;-82
2023/10/02 01:33:21;;;;;;;10.32;4.78;;;;;;;;;;5072659;28;20032;-82
2023/10/02 01:35:51;;;;;;;9.15;4.57;;;;;;;;;;5056740;28;20037;-81
2023/10/02 01:38:33;;;;;;;8.85;4.65;;;;;;;;;;5068698;28;20492;-81
2023/10/02 01:41:10;;;;;;;10.05;5.10;;;;;;;;;;5064325;28;20024;-82
2023/10/02 01:43:39;;;;;;;8.45;4.15;;;;;;;;;;5056254;28;20488;-81
2023/10/02 01:46:05;;;;;;;9.77;4.95;;;;;;;;;;5052475;28;20028;-82
2023/10/02 01:48:40;;;;;;;8.57;4.63;;;;;;;;;;5067663;28;20036;-81
2023/10/02 01:51:15;;;;;;;9.55;4.80;;;;;;;;;;5072526;28;20029;-82
2023/10/02 01:54:02;;;;;;;11.23;4.80;;;;;;;;;;5057513;28;20052;-81
2023/10/02 01:56:29;;;;;;;9.70;5.10;;;;;;;;;;5067671;28;20057;-82
2023/10/02 01:59:08;;;;;;;9.13;4.90;;;;;;;;;;5051950;28;20066;-82
2023/10/02 02:01:46;;;;;;;8.65;4.30;;;;;;;;;;5059157;28;20021;-82
2023/10/02 02:04:11;;;;;;;10.63;4.97;;;;;;;;;;5062536;28;20020;-82
2023/10/02 02:06:51;;;;;;;8.95;4.15;;;;;;;;;;5070580;28;20032;-82
2023/10/02 02:09:22;;;;;;;10.52;5.28;;;;;;;;;;5069349;28;20037;-82
2023/10/02 02:12:05;;;;;;;13.77;4.78;;;;;;;;;;5058864;28;20082;-82
2023/10/02 02:14:30;;;;;;;9.07;4.78;;;;;;;;;;5057086;28;20037;-82
2023/10/02 02:16:55;;;;;;;9.25;4.15;;;;;;;;;;5059176;28;20032;-81
2023/10/02 02:19:23;;;;;;;10.52;5.15;;;;;;;;;;5057629;28;20080;-82
2023/10/02 02:21:49;;;;;;;10.30;5.18;;;;;;;;;;5059443;28;20401;-82
2023/10/02 02:24:14;;;;;;;9.75;4.60;;;;;;;;;;5056706;28;20028;-82
2023/10/02 02:26:39;;;;;;;10.20;4.45;;;;;;;;;;5068516;28;20039;-81
2023/10/02 02:29:05;;;;;;;9.63;4.70;;;;;;;;;;5076082;28;20029;-82
2023/10/02 02:31:32;;;;;;;10.20;4.88;;;;;;;;;;5054783;28;20359;-80
2023/10/02 02:34:08;;;;;;;10.23;4.75;;;;;;;;;;5059116;28;20070;-80
2023/10/02 02:36:35;;;;;;;9.60;5.10;;;;;;;;;;5056698;28;20085;-81
2023/10/02 02:39:37;;;;;;;9.88;5.00;;;;;;;;;;5068907;28;20096;-81
2023/10/02 02:44:40;;;;;;;12.07;5.22;;;;;;;;;;5075117;28;20064;-81
2023/10/02 02:47:09;;;;;;;10.15;5.40;;;;;;;;;;5061320;28;20062;-82
2023/10/02 02:49:48;;;;;;;9.35;5.03;;;;;;;;;;5071781;28;20037;-81
2023/10/02 02:52:32;;;;;;;9.75;5.07;;;;;;;;;;5049268;28;20028;-80
2023/10/02 02:55:05;;;;;;;8.48;4.18;;;;;;;;;;5046677;28;20029;-81
2023/10/02 02:57:31;;;;;;;10.80;5.15;;;;;;;;;;5057370;28;20037;-81
2023/10/02 03:00:25;;;;;;;10.27;5.18;;;;;;;;;;5073554;28;20051;-80
2023/10/02 03:02:46;;;;;;;9.98;4.93;;;;;;;;;;5070105;28;20035;-81
2023/10/02 03:05:11;;;;;;;9.98;5.25;;;;;;;;;;5049645;28;20035;-82
2023/10/02 03:07:45;;;;;;;9.95;4.88;;;;;;;;;;5049756;28;20033;-81
2023/10/02 03:10:11;;;;;;;8.00;3.80;;;;;;;;;;5051734;28;20094;-81
2023/10/02 03:12:47;;;;;;;12.07;5.07;;;;;;;;;;5054743;28;20048;-81
2023/10/02 03:15:13;;;;;;;8.80;4.43;;;;;;;;;;5061759;28;20028;-81
2023/10/02 03:17:41;;;;;;;8.68;4.30;;;;;;;;;;5069649;28;20029;-80
2023/10/02 03:20:22;;;;;;;10.05;4.47;;;;;;;;;;5057126;28;20492;-82
2023/10/02 03:22:51;;;;;;;9.63;5.35;;;;;;;;;;5057094;28;20028;-82
2023/10/02 03:25:40;;;;;;;8.77;4.93;;;;;;;;;;5070707;28;20117;-82
2023/10/02 03:28:16;;;;;;;8.10;4.75;;;;;;;;;;5058023;28;20089;-81
2023/10/02 03:30:43;;;;;;;10.13;4.78;;;;;;;;;;5069523;28;20035;-81
2023/10/02 03:33:17;;;;;;;8.55;4.45;;;;;;;;;;5051934;28;20115;-80
2023/10/02 03:36:02;;;;;;;12.57;5.45;;;;;;;;;;5057192;28;20393;-82
2023/10/02 03:38:33;;;;;;;12.50;5.57;;;;;;;;;;5074031;28;20025;-81
2023/10/02 03:40:59;;;;;;;10.25;5.28;;;;;;;;;;5057244;28;20170;-80
2023/10/02 03:46:15;;;;;;;9.85;4.75;;;;;;;;;;5068234;28;20401;-80
2023/10/02 03:48:40;;;;;;;8.50;4.70;;;;;;;;;;5063989;28;20079;-81
2023/10/02 03:51:06;;;;;;;8.82;4.88;;;;;;;;;;5049288;28;20040;-82
2023/10/02 03:53:33;;;;;;;11.48;4.95;;;;;;;;;;5073483;28;20041;-82
2023/10/02 03:58:48;;;;;;;11.00;4.60;;;;;;;;;;5064680;28;20404;-81
2023/10/02 04:01:17;;;;;;;10.57;5.55;;;;;;;;;;5048754;28;20484;-81
2023/10/02 04:04:32;;;;;;;9.80;5.05;;;;;;;;;;5049836;28;20029;-82
2023/10/02 04:06:34;;;;;;;10.70;4.72;;;;;;;;;;5064964;28;20106;-81
2023/10/02 04:09:13;;;;;;;9.65;5.15;;;;;;;;;;5071996;28;20093;-80
2023/10/02 04:11:39;;;;;;;12.00;5.38;;;;;;;;;;5055274;28;20115;-81
2023/10/02 04:14:17;;;;;;;11.18;4.88;;;;;;;;;;5055216;28;20567;-82
2023/10/02 04:16:43;;;;;;;10.18;4.78;;;;;;;;;;5040651;28;20456;-82
2023/10/02 04:19:08;;;;;;;13.98;5.88;;;;;;;;;;5070571;28;20028;-82
2023/10/02 04:21:34;;;;;;;8.25;4.72;;;;;;;;;;5072299;28;20162;-81
2023/10/02 04:23:59;;;;;;;8.30;4.68;;;;;;;;;;5071874;28;20032;-82
2023/10/02 04:26:24;;;;;;;9.30;4.88;;;;;;;;;;5067482;28;20033;-82
2023/10/02 04:28:55;;;;;;;8.95;4.70;;;;;;;;;;5056342;28;20020;-81
2023/10/02 04:31:21;;;;;;;11.25;5.32;;;;;;;;;;5045468;28;20013;-81
2023/10/02 04:34:14;;;;;;;10.48;4.97;;;;;;;;;;5071754;28;20036;-81
2023/10/02 04:36:34;;;;;;;8.93;4.60;;;;;;;;;;5074679;28;20041;-82
2023/10/02 04:39:04;;;;;;;10.23;5.18;;;;;;;;;;5060535;28;20035;-81
2023/10/02 04:41:37;;;;;;;22.45;14.65;;;;;;;;;;5070853;28;20063;-80
2023/10/02 04:44:04;;;;;;;13.65;7.03;;;;;;;;;;5073712;28;20166;-82
2023/10/02 04:46:32;;;;;;;10.85;5.45;;;;;;;;;;5070858;28;20068;-81
2023/10/02 04:49:01;;;;;;;18.25;5.90;;;;;;;;;;5060769;28;20029;-81
2023/10/02 04:51:29;;;;;;;10.15;5.35;;;;;;;;;;5059018;28;20029;-81
2023/10/02 04:53:58;;;;;;;9.45;4.72;;;;;;;;;;5075791;28;20089;-81
2023/10/02 04:56:24;;;;;;;11.13;5.07;;;;;;;;;;5056424;28;20108;-80
2023/10/02 04:58:50;;;;;;;11.32;5.50;;;;;;;;;;5071249;28;20075;-81
2023/10/02 05:01:29;;;;;;;10.88;5.53;;;;;;;;;;5073918;28;20051;-81
2023/10/02 05:03:54;;;;;;;10.38;5.82;;;;;;;;;;5047964;28;20035;-81
2023/10/02 05:14:48;;;;;;;8.52;4.32;;;;;;;;;;5031970;28;20040;-81
2023/10/02 05:17:16;;;;;;;10.15;5.00;;;;;;;;;;5060267;28;20032;-82
2023/10/02 05:20:01;;;;;;;9.93;5.38;;;;;;;;;;5056346;28;20029;-81
2023/10/02 05:22:27;;;;;;;9.98;5.25;;;;;;;;;;5069931;28;20091;-81
2023/10/02 05:24:59;;;;;;;10.65;5.00;;;;;;;;;;5075682;28;20074;-81
2023/10/02 05:27:31;;;;;;;11.20;5.65;;;;;;;;;;5048743;28;20060;-82
2023/10/02 05:30:00;;;;;;;9.00;4.88;;;;;;;;;;5076989;28;20086;-82
2023/10/02 05:32:29;;;;;;;10.68;5.35;;;;;;;;;;5057881;28;20039;-81
2023/10/02 05:35:04;;;;;;;10.45;5.93;;;;;;;;;;5059396;28;20078;-80
2023/10/02 05:37:31;;;;;;;11.25;5.60;;;;;;;;;;5051570;28;20029;-80
2023/10/02 05:40:37;;;;;;;10.30;5.55;;;;;;;;;;5070447;28;20136;-79
2023/10/02 05:48:14;;;;;;;10.82;5.93;;;;;;;;;;5073057;28;20282;-82
2023/10/02 05:50:47;;;;;;;10.82;5.45;;;;;;;;;;5071069;28;20044;-81
2023/10/02 05:53:12;;;;;;;12.13;5.72;;;;;;;;;;5051193;28;20094;-80
2023/10/02 05:58:27;;;;;;;10.10;5.30;;;;;;;;;;5073433;28;20814;-82
2023/10/02 06:00:53;;;;;;;9.97;5.20;;;;;;;;;;5055316;28;20495;-82
2023/10/02 06:03:18;;;;;;;14.70;5.70;;;;;;;;;;5071836;28;20271;-82
2023/10/02 06:06:06;;;;;;;8.77;4.95;;;;;;;;;;5056740;28;20420;-81
2023/10/02 06:08:33;;;;;;;9.48;4.63;;;;;;;;;;5069847;28;20610;-81
2023/10/02 06:11:08;;;;;;;9.48;5.28;;;;;;;;;;5076299;28;20059;-82
2023/10/02 06:13:37;;;;;;;9.38;4.78;;;;;;;;;;5074025;28;20516;-81
2023/10/02 06:16:07;;;;;;;11.80;5.78;;;;;;;;;;5059248;28;20028;-82
2023/10/02 06:18:32;;;;;;;11.27;5.88;;;;;;;;;;5053407;28;20036;-82
2023/10/02 06:21:00;;;;;;;10.98;5.90;;;;;;;;;;5054879;28;20023;-82
2023/10/02 06:23:25;;;;;;;9.60;5.43;;;;;;;;;;5065185;28;20033;-82
2023/10/02 06:25:52;;;;;;;11.65;6.88;;;;;;;;;;5074853;28;20032;-80
2023/10/02 06:28:27;;;;;;;10.55;5.55;;;;;;;;;;5047502;28;20029;-81
2023/10/02 06:30:52;;;;;;;9.57;4.97;;;;;;;;;;5053875;28;20119;-82
2023/10/02 06:33:21;;;;;;;8.38;4.30;;;;;;;;;;5069340;28;20500;-82
2023/10/02 06:35:56;;;;;;;13.65;6.30;;;;;;;;;;5069605;28;20041;-82
2023/10/02 06:38:21;;;;;;;11.70;5.70;;;;;;;;;;5055116;28;20028;-82
2023/10/02 06:40:56;;;;;;;13.40;6.57;;;;;;;;;;5057501;28;20024;-80
2023/10/02 06:43:32;;;;;;;14.15;7.65;;;;;;;;;;5057336;28;20052;-82
2023/10/02 06:46:13;;;;;;;14.57;7.40;;;;;;;;;;5041988;28;20341;-82
2023/10/02 06:48:43;;;;;;;11.48;6.40;;;;;;;;;;5068029;28;20040;-82
2023/10/02 06:51:08;;;;;;;10.85;6.75;;;;;;;;;;5053294;28;20031;-82
2023/10/02 06:53:33;;;;;;;12.50;6.15;;;;;;;;;;5074273;28;20033;-82
2023/10/02 06:56:03;;;;;;;10.52;4.95;;;;;;;;;;5073735;28;20071;-82
2023/10/02 06:58:29;;;;;;;11.98;5.65;;;;;;;;;;5069681;28;20089;-82
2023/10/02 07:00:54;;;;;;;12.02;5.47;;;;;;;;;;5072496;28;20514;-82
2023/10/02 07:03:21;;;;;;;11.65;5.55;;;;;;;;;;5058080;28;20021;-82
2023/10/02 07:05:47;;;;;;;12.02;5.88;;;;;;;;;;5071065;28;20507;-82
2023/10/02 07:08:18;;;;;;;11.88;5.65;;;;;;;;;;5056801;28;20025;-82
2023/10/02 07:10:44;;;;;;;14.23;6.10;;;;;;;;;;5055580;28;20036;-81
2023/10/02 07:13:19;;;;;;;13.10;6.43;;;;;;;;;;5058072;28;20021;-81
2023/10/02 07:15:44;;;;;;;11.18;5.20;;;;;;;;;;5069740;28;20067;-81
2023/10/02 07:18:12;;;;;;;12.95;6.38;;;;;;;;;;5049082;28;20060;-82
2023/10/02 07:20:42;;;;;;;11.07;5.35;;;;;;;;;;5054925;28;20040;-82
2023/10/02 07:23:15;;;;;;;11.13;4.95;;;;;;;;;;5040375;28;20031;-81
2023/10/02 07:25:43;;;;;;;12.35;4.50;;;;;;;;;;5070489;28;20496;-82
2023/10/02 07:28:10;;;;;;;9.43;4.70;;;;;;;;;;5070040;28;20500;-81
2023/10/02 07:30:35;;;;;;;11.73;5.23;;;;;;;;;;5069535;28;20041;-82
2023/10/02 07:33:03;;;;;;;10.63;4.63;;;;;;;;;;5049658;28;20465;-82
2023/10/02 07:35:29;;;;;;;10.18;5.35;;;;;;;;;;5073940;28;20282;-82
2023/10/02 07:38:00;;;;;;;9.93;4.90;;;;;;;;;;5072511;28;20031;-82
2023/10/02 07:40:46;;;;;;;12.30;5.05;;;;;;;;;;5053453;28;20032;-81
2023/10/02 07:43:21;;;;;;;9.27;4.93;;;;;;;;;;5043171;28;20025;-82
2023/10/02 07:48:35;;;;;;;11.88;5.13;;;;;;;;;;5072002;28;20496;-82
2023/10/02 07:51:01;;;;;;;9.88;5.38;;;;;;;;;;5074318;28;20129;-82
2023/10/02 07:53:38;;;;;;;10.30;4.88;;;;;;;;;;5069392;28;20570;-81
2023/10/02 07:56:14;;;;;;;11.05;5.28;;;;;;;;;;5069660;28;20074;-81
2023/10/02 07:58:41;;;;;;;9.32;4.47;;;;;;;;;;5048207;28;20033;-82
2023/10/02 08:01:11;;;;;;;11.80;4.85;;;;;;;;;;5050049;28;20027;-80
2023/10/02 08:03:42;;;;;;;9.05;4.63;;;;;;;;;;5056092;28;20027;-81
2023/10/02 08:06:21;;;;;;;13.20;4.93;;;;;;;;;;5072123;28;20100;-82
2023/10/02 08:11:34;;;;;;;11.05;5.90;;;;;;;;;;5055275;28;20119;-82
2023/10/02 08:14:00;;;;;;;10.85;4.70;;;;;;;;;;5068149;28;20035;-83
2023/10/02 08:16:26;;;;;;;8.48;4.50;;;;;;;;;;5056278;28;20029;-82
2023/10/02 08:18:58;;;;;;;10.93;5.25;;;;;;;;;;5040665;28;20020;-82
2023/10/02 08:21:45;;;;;;;10.55;5.78;;;;;;;;;;5055022;28;20037;-82
2023/10/02 08:24:11;;;;;;;13.35;6.43;;;;;;;;;;5047846;28;20021;-82
2023/10/02 08:26:40;;;;;;;13.87;5.33;;;;;;;;;;5045217;28;20107;-82
2023/10/02 08:29:09;;;;;;;9.80;5.03;;;;;;;;;;5067314;28;20754;-82
2023/10/02 08:31:36;;;;;;;10.45;5.38;;;;;;;;;;5071908;28;20028;-82
2023/10/02 08:34:05;;;;;;;11.18;5.30;;;;;;;;;;5056520;28;20021;-82
2023/10/02 08:36:33;;;;;;;10.95;6.00;;;;;;;;;;5049905;28;20091;-80
2023/10/02 08:39:00;;;;;;;10.00;5.45;;;;;;;;;;5065382;28;20028;-82
2023/10/02 08:41:28;;;;;;;11.98;6.30;;;;;;;;;;5054502;28;20036;-82
2023/10/02 08:43:54;;;;;;;13.15;6.07;;;;;;;;;;5044303;28;20488;-82
2023/10/02 08:46:21;;;;;;;11.23;5.63;;;;;;;;;;5047929;28;20059;-82
2023/10/02 08:48:56;;;;;;;10.23;5.82;;;;;;;;;;5054810;28;20051;-82
2023/10/02 08:51:29;;;;;;;11.32;6.30;;;;;;;;;;5050425;28;20097;-80
2023/10/02 08:53:56;;;;;;;11.90;6.53;;;;;;;;;;5056496;28;20029;-82
2023/10/02 08:56:24;;;;;;;12.80;6.38;;;;;;;;;;5063130;28;20033;-82
2023/10/02 09:01:48;;;;;;;10.13;4.97;;;;;;;;;;5019936;28;20043;-82
2023/10/02 09:04:28;;;;;;;11.18;5.55;;;;;;;;;;5071351;28;20025;-82
2023/10/02 09:06:58;;;;;;;10.32;5.30;;;;;;;;;;5056233;28;20095;-82
2023/10/02 09:09:27;;;;;;;10.07;5.68;;;;;;;;;;5064673;28;20456;-82
2023/10/02 09:11:57;;;;;;;10.95;5.55;;;;;;;;;;5069602;28;20116;-83
2023/10/02 09:14:39;;;;;;;12.20;6.43;;;;;;;;;;5053407;28;20052;-82
2023/10/02 09:17:18;;;;;;;9.90;5.60;;;;;;;;;;5070057;28;20450;-82
2023/10/02 09:19:57;;;;;;;10.20;5.45;;;;;;;;;;5066991;28;20029;-82
2023/10/02 09:22:25;;;;;;;11.38;5.47;;;;;;;;;;5050835;28;20056;-83
2023/10/02 09:25:23;;;;;;;12.45;6.20;;;;;;;;;;5055807;28;20381;-82
2023/10/02 09:28:00;;;;;;;16.45;6.95;;;;;;;;;;5065989;28;20032;-82
2023/10/02 09:33:08;;;;;;;10.23;5.18;;;;;;;;;;5075371;28;20107;-82
2023/10/02 09:35:42;;;;;;;13.32;6.40;;;;;;;;;;5134063;22;20123;-83
2023/10/02 09:38:17;;;;;;;13.10;5.63;;;;;;;;;;5087864;28;20093;-82
2023/10/02 09:41:15;;;;;;;11.63;6.65;;;;;;;;;;5103557;28;20036;-83
2023/10/02 09:43:41;;;;;;;12.55;6.57;;;;;;;;;;5087283;28;20040;-82
2023/10/02 09:46:15;;;;;;;10.60;6.40;;;;;;;;;;5097629;28;20073;-83
2023/10/02 09:49:09;;;;;;;9.65;5.45;;;;;;;;;;5089980;28;20032;-83
2023/10/02 09:52:09;;;;;;;10.02;5.65;;;;;;;;;;5091126;28;20036;-82
2023/10/02 09:54:34;;;;;;;11.10;5.85;;;;;;;;;;5093264;28;20059;-83
2023/10/02 09:57:05;;;;;;;10.18;5.82;;;;;;;;;;5097178;28;20036;-82
2023/10/02 09:59:46;;;;;;;7.95;4.40;;;;;;;;;;5091596;28;20032;-83
2023/10/02 10:08:18;;;;;;;12.65;5.47;;;;;;;;;;5096064;28;20039;-82
2023/10/02 10:10:52;;;;;;;9.57;5.53;;;;;;;;;;5061722;28;20036;-82
2023/10/02 10:13:24;;;;;;;11.55;6.32;;;;;;;;;;5086578;28;20085;-83
2023/10/02 10:15:49;;;;;;;10.27;6.03;;;;;;;;;;5079298;28;20032;-83
2023/10/02 10:18:14;;;;;;;10.17;5.90;;;;;;;;;;5062205;28;20035;-82
2023/10/02 10:20:39;;;;;;;9.83;5.83;;;;;;;;;;5089859;28;20028;-83
2023/10/02 10:23:31;;;;;;;13.70;6.80;;;;;;;;;;5076727;28;20107;-83
2023/10/02 10:26:07;;;;;;;12.15;6.10;;;;;;;;;;5091682;28;20499;-82
2023/10/02 10:28:33;;;;;;;10.73;5.78;;;;;;;;;;5092914;28;20500;-82
2023/10/02 10:31:01;;;;;;;12.30;6.28;;;;;;;;;;5091156;28;20036;-83
2023/10/02 10:33:27;;;;;;;12.20;5.88;;;;;;;;;;5089099;28;20040;-84
2023/10/02 10:35:52;;;;;;;11.88;5.75;;;;;;;;;;5089508;28;20400;-83
2023/10/02 10:41:27;;;;;;;9.40;5.35;;;;;;;;;;5092072;28;20262;-84
2023/10/02 10:43:59;;;;;;;9.07;5.50;;;;;;;;;;5091769;28;20028;-82
2023/10/02 10:46:27;;;;;;;10.05;6.35;;;;;;;;;;5087273;28;20036;-83
2023/10/02 10:48:59;;;;;;;10.70;5.80;;;;;;;;;;5092799;28;20039;-83
2023/10/02 10:51:27;;;;;;;9.70;5.50;;;;;;;;;;5074362;28;20036;-83
2023/10/02 10:53:54;;;;;;;9.15;5.05;;;;;;;;;;5077220;28;20032;-83
2023/10/02 10:56:19;;;;;;;11.95;5.85;;;;;;;;;;5072242;28;20492;-84
2023/10/02 10:59:02;;;;;;;10.05;6.07;;;;;;;;;;5069652;28;20035;-84
2023/10/02 11:01:27;;;;;;;10.75;5.40;;;;;;;;;;5048965;28;20028;-84
2023/10/02 11:04:01;;;;;;;11.57;5.55;;;;;;;;;;5093558;28;20028;-86
2023/10/02 11:06:28;;;;;;;10.90;6.55;;;;;;;;;;5069762;28;20039;-86
2023/10/02 11:09:12;;;;;;;9.50;6.03;;;;;;;;;;5091246;28;20028;-84
2023/10/02 11:11:50;;;;;;;8.63;4.85;;;;;;;;;;5086998;28;20058;-84
2023/10/02 11:14:22;;;;;;;10.35;5.95;;;;;;;;;;5068223;28;20028;-83
2023/10/02 11:16:54;;;;;;;10.52;5.88;;;;;;;;;;5090760;28;20051;-85
2023/10/02 11:19:25;;;;;;;10.20;5.03;;;;;;;;;;5077202;28;20028;-85
2023/10/02 11:22:19;;;;;;;11.25;6.13;;;;;;;;;;5073979;28;20590;-84
2023/10/02 11:24:46;;;;;;;8.93;5.18;;;;;;;;;;5088206;28;20056;-85
2023/10/02 11:27:18;;;;;;;8.50;4.95;;;;;;;;;;5072251;28;20040;-85
2023/10/02 11:30:02;;;;;;;11.45;6.10;;;;;;;;;;5093312;28;20051;-84
2023/10/02 11:32:53;;;;;;;10.38;5.88;;;;;;;;;;5071951;28;20491;-84
2023/10/02 11:35:18;;;;;;;9.45;5.63;;;;;;;;;;5088967;28;20020;-84
2023/10/02 11:37:44;;;;;;;9.80;6.20;;;;;;;;;;5072681;28;20136;-84
2023/10/02 11:40:09;;;;;;;10.38;5.90;;;;;;;;;;5071967;28;20024;-85
2023/10/02 11:42:34;;;;;;;11.40;5.55;;;;;;;;;;5084433;28;20385;-84
2023/10/02 11:45:00;;;;;;;10.63;6.27;;;;;;;;;;5084843;28;20032;-84
2023/10/02 11:47:26;;;;;;;10.30;6.33;;;;;;;;;;5092128;28;20028;-86
2023/10/02 11:49:51;;;;;;;8.98;5.05;;;;;;;;;;5074469;28;20091;-85
2023/10/02 11:52:18;;;;;;;8.93;5.20;;;;;;;;;;5071113;28;20441;-84
2023/10/02 11:54:43;;;;;;;9.85;5.30;;;;;;;;;;5086608;28;20093;-85
2023/10/02 11:57:09;;;;;;;11.90;6.03;;;;;;;;;;5073084;28;20107;-84
2023/10/02 11:59:36;;;;;;;9.82;5.05;;;;;;;;;;5094281;28;21465;-84
2023/10/02 12:02:01;;;;;;;8.63;5.40;;;;;;;;;;5066001;28;20025;-84
2023/10/02 12:04:27;;;;;;;8.50;5.15;;;;;;;;;;5074637;28;20600;-85
2023/10/02 12:06:54;;;;;;;10.20;5.47;;;;;;;;;;5070430;28;20107;-84
2023/10/02 12:09:19;;;;;;;8.50;5.25;;;;;;;;;;5067532;28;20039;-85
2023/10/02 12:11:44;;;;;;;12.20;5.57;;;;;;;;;;5074839;28;20024;-84
2023/10/02 12:14:10;;;;;;;9.07;5.33;;;;;;;;;;5093127;28;20020;-84
2023/10/02 12:16:35;;;;;;;9.30;5.60;;;;;;;;;;5089656;28;20335;-85
2023/10/02 12:19:00;;;;;;;9.97;5.30;;;;;;;;;;5092609;28;20027;-84
2023/10/02 12:21:25;;;;;;;13.43;5.53;;;;;;;;;;5073228;28;20519;-84
2023/10/02 12:23:50;;;;;;;10.83;5.73;;;;;;;;;;5086829;28;20039;-82
2023/10/02 12:26:17;;;;;;;8.10;5.00;;;;;;;;;;5071853;28;20126;-85
2023/10/02 12:28:42;;;;;;;8.13;4.15;;;;;;;;;;5088821;28;20036;-84
2023/10/02 12:31:08;;;;;;;8.43;5.22;;;;;;;;;;5076559;28;20024;-86
2023/10/02 12:33:35;;;;;;;12.23;4.78;;;;;;;;;;5086807;28;20033;-84
2023/10/02 12:36:00;;;;;;;8.07;5.10;;;;;;;;;;5075743;28;20119;-84
2023/10/02 12:38:26;;;;;;;10.32;5.88;;;;;;;;;;5076388;28;20404;-86
2023/10/02 12:40:51;;;;;;;8.57;5.32;;;;;;;;;;5072878;28;20503;-84
2023/10/02 12:43:17;;;;;;;10.97;5.30;;;;;;;;;;5091781;28;20085;-83
2023/10/02 12:45:43;;;;;;;9.02;4.63;;;;;;;;;;5074153;28;20032;-85
2023/10/02 12:48:08;;;;;;;8.85;4.25;;;;;;;;;;5071066;28;20048;-85
2023/10/02 12:50:37;;;;;;;7.97;4.47;;;;;;;;;;5084490;28;20032;-84
2023/10/02 12:53:04;;;;;;;8.32;3.83;;;;;;;;;;5080319;28;20028;-84
2023/10/02 12:55:29;;;;;;;8.80;4.60;;;;;;;;;;5093680;28;20032;-85
2023/10/02 12:57:54;;;;;;;8.45;4.13;;;;;;;;;;5080181;28;20028;-85
2023/10/02 13:00:20;;;;;;;8.27;5.10;;;;;;;;;;5091782;28;20028;-86
2023/10/02 13:02:45;;;;;;;8.00;4.80;;;;;;;;;;5072047;28;20020;-84
2023/10/02 13:05:11;;;;;;;6.85;3.67;;;;;;;;;;5089862;28;20047;-84
2023/10/02 13:07:36;;;;;;;8.83;4.43;;;;;;;;;;5093145;28;20480;-86
2023/10/02 13:10:04;;;;;;;6.70;3.92;;;;;;;;;;5080255;28;20048;-84
2023/10/02 13:12:29;;;;;;;6.90;4.32;;;;;;;;;;5093901;28;20036;-84
2023/10/02 13:14:54;;;;;;;8.23;4.57;;;;;;;;;;5092428;28;20066;-85
2023/10/02 13:17:19;;;;;;;8.40;4.23;;;;;;;;;;5077430;28;20032;-83
2023/10/02 13:19:45;;;;;;;6.93;4.00;;;;;;;;;;5077365;28;20638;-84
2023/10/02 13:22:10;;;;;;;6.70;3.70;;;;;;;;;;5074227;28;20642;-85
2023/10/02 13:24:35;;;;;;;7.67;3.60;;;;;;;;;;5075708;28;20032;-83
2023/10/02 13:27:00;;;;;;;9.13;4.40;;;;;;;;;;5085065;28;20032;-84
2023/10/02 13:29:26;;;;;;;6.23;3.67;;;;;;;;;;5077338;28;20277;-84
2023/10/02 13:31:51;;;;;;;9.10;4.30;;;;;;;;;;5096365;28;20032;-84
2023/10/02 13:34:17;;;;;;;6.38;3.97;;;;;;;;;;5086828;28;20021;-85
2023/10/02 13:36:42;;;;;;;6.57;3.67;;;;;;;;;;5075367;28;20039;-84
2023/10/02 13:39:13;;;;;;;6.23;3.37;;;;;;;;;;5094503;28;20016;-84
2023/10/02 13:41:38;;;;;;;6.90;3.83;;;;;;;;;;5074702;28;20085;-84
2023/10/02 13:44:04;;;;;;;6.73;4.10;;;;;;;;;;5091347;28;20028;-85
2023/10/02 13:46:29;;;;;;;6.93;4.55;;;;;;;;;;5086877;28;20473;-85
2023/10/02 13:48:54;;;;;;;9.83;4.10;;;;;;;;;;5079048;28;20113;-84
2023/10/02 13:51:20;;;;;;;8.05;3.58;;;;;;;;;;5096047;28;20437;-84
2023/10/02 13:53:45;;;;;;;7.78;3.97;;;;;;;;;;5076961;28;20048;-85
2023/10/02 13:56:17;;;;;;;8.85;4.20;;;;;;;;;;5076486;28;20024;-86
2023/10/02 13:58:43;;;;;;;8.77;3.58;;;;;;;;;;5087163;28;20646;-84
2023/10/02 14:01:14;;;;;;;7.05;3.55;;;;;;;;;;5088584;28;20039;-86
2023/10/02 14:03:41;;;;;;;6.80;3.13;;;;;;;;;;5075391;28;20361;-84
2023/10/02 14:06:08;;;;;;;6.82;3.65;;;;;;;;;;5094470;28;20083;-83
2023/10/02 14:08:34;;;;;;;6.35;3.78;;;;;;;;;;5093029;28;20107;-85
2023/10/02 14:11:02;;;;;;;6.10;3.38;;;;;;;;;;5091570;28;20059;-85
2023/10/02 14:13:28;;;;;;;6.18;3.80;;;;;;;;;;5087274;28;20032;-84
2023/10/02 14:15:53;;;;;;;6.28;3.63;;;;;;;;;;5087475;28;20043;-84
2023/10/02 14:18:19;;;;;;;7.28;3.55;;;;;;;;;;5078381;28;20032;-84
2023/10/02 14:20:45;;;;;;;7.80;3.50;;;;;;;;;;5076672;28;20036;-83
2023/10/02 14:23:10;;;;;;;7.03;4.07;;;;;;;;;;5092859;28;20020;-84
2023/10/02 14:25:40;;;;;;;9.15;3.85;;;;;;;;;;5072993;28;20020;-85
2023/10/02 14:28:08;;;;;;;6.95;3.42;;;;;;;;;;5086632;28;20378;-84
2023/10/02 14:30:33;;;;;;;9.95;3.40;;;;;;;;;;5070398;28;20054;-85
2023/10/02 14:33:00;;;;;;;7.30;3.77;;;;;;;;;;5084209;28;20504;-84
2023/10/02 14:35:26;;;;;;;6.22;3.67;;;;;;;;;;5093147;28;20289;-84
2023/10/02 14:37:52;;;;;;;7.63;3.33;;;;;;;;;;5093495;28;20028;-86
2023/10/02 14:40:21;;;;;;;7.65;3.28;;;;;;;;;;5076956;28;20028;-84
2023/10/02 14:42:48;;;;;;;;;;;;;;;;;;5087224;28;20036;-83
2023/10/02 14:45:13;;;;;;;7.00;3.53;;;;;;;;;;5077277;28;20003;-84
2023/10/02 14:47:39;;;;;;;7.32;3.70;;;;;;;;;;5089682;28;20035;-84
2023/10/02 14:50:04;;;;;;;10.05;4.07;;;;;;;;;;5077242;28;20024;-84
2023/10/02 14:52:29;;;;;;;8.30;4.05;;;;;;;;;;5091596;28;20024;-86
2023/10/02 14:54:54;;;;;;;7.73;3.53;;;;;;;;;;5089031;28;20045;-83
2023/10/02 14:57:22;;;;;;;8.00;4.20;;;;;;;;;;5093188;28;20059;-84
2023/10/02 14:59:47;;;;;;;7.85;3.60;;;;;;;;;;5075155;28;20034;-84
2023/10/02 15:02:12;;;;;;;6.33;3.63;;;;;;;;;;5093571;28;20027;-84
2023/10/02 15:04:37;;;;;;;6.87;3.37;;;;;;;;;;5071754;28;20282;-85
2023/10/02 15:07:05;;;;;;;8.53;3.57;;;;;;;;;;5089954;28;20040;-83
2023/10/02 15:09:30;;;;;;;6.22;3.42;;;;;;;;;;5073396;28;20028;-84
2023/10/02 15:11:56;;;;;;;6.43;3.72;;;;;;;;;;5069023;28;20058;-84
2023/10/02 15:14:21;;;;;;;6.05;3.33;;;;;;;;;;5094346;28;20028;-83
2023/10/02 15:16:46;;;;;;;9.97;3.70;;;;;;;;;;5074752;28;20025;-84
2023/10/02 15:19:13;;;;;;;11.23;4.30;;;;;;;;;;5076397;28;20091;-83
2023/10/02 15:21:38;;;;;;;6.50;3.13;;;;;;;;;;5089452;28;20458;-84
2023/10/02 15:24:04;;;;;;;7.47;3.55;;;;;;;;;;5068468;28;20032;-85
2023/10/02 15:26:29;;;;;;;6.20;3.10;;;;;;;;;;5087281;28;20134;-83
2023/10/02 15:28:54;;;;;;;7.93;3.93;;;;;;;;;;5075654;28;20293;-84
2023/10/02 15:31:20;;;;;;;7.82;3.60;;;;;;;;;;5076847;28;20460;-84
2023/10/02 15:33:45;;;;;;;7.65;3.78;;;;;;;;;;5074814;28;20086;-84
2023/10/02 15:36:15;;;;;;;7.20;3.70;;;;;;;;;;5089019;28;20115;-84
2023/10/02 15:38:40;;;;;;;8.00;3.80;;;;;;;;;;5084261;28;20119;-84
2023/10/02 15:41:09;;;;;;;7.28;3.80;;;;;;;;;;5093967;28;20074;-84